Time;durP1;ratioP1;P1;durP2;ratioP2;P2;SDS_P1;SDS_P2;PMS_P1;PMS_P2;Temp;Humidity;BMP_temperature;BMP_pressure;BME280_temperature;BME280_humidity;BME280_pressure;Samples;Min_cycle;Max_cycle;Signal;HPM_P1;HPM_P2
2022/07/27 00:00:18;;;;;;;8.98;4.00;;;;;;;18.03;91.54;92352.03;5012767;28;20029;-74
2022/07/27 00:02:43;;;;;;;10.90;4.63;;;;;;;18.04;91.48;92357.00;5000400;28;20065;-74
2022/07/27 00:05:09;;;;;;;9.02;4.60;;;;;;;18.02;96.60;92369.78;5018716;28;20063;-74
2022/07/27 00:07:35;;;;;;;11.90;5.05;;;;;;;17.90;99.19;92375.13;5036489;28;20060;-74
2022/07/27 00:10:00;;;;;;;8.10;4.80;;;;;;;17.91;99.29;92375.91;5054258;28;20576;-74
2022/07/27 00:12:26;;;;;;;7.43;4.85;;;;;;;17.83;99.90;92353.72;5036125;28;20036;-74
2022/07/27 00:14:51;;;;;;;8.30;4.75;;;;;;;17.72;100.00;92352.59;5036341;28;20391;-74
2022/07/27 00:17:22;;;;;;;6.68;4.50;;;;;;;17.81;100.00;92350.59;5003546;28;20457;-74
2022/07/27 00:19:49;;;;;;;8.82;4.63;;;;;;;17.77;100.00;92352.41;5017440;28;20113;-74
2022/07/27 00:22:14;;;;;;;7.43;4.40;;;;;;;17.78;98.59;92356.56;5016239;28;20025;-73
2022/07/27 00:24:40;;;;;;;8.27;4.30;;;;;;;17.75;98.64;92358.00;5034061;28;20681;-74
2022/07/27 00:27:07;;;;;;;8.48;4.63;;;;;;;17.71;97.56;92351.84;5045367;28;20040;-74
2022/07/27 00:29:32;;;;;;;7.22;4.65;;;;;;;17.72;95.79;92350.75;5019566;28;20028;-74
2022/07/27 00:31:58;;;;;;;9.48;5.47;;;;;;;17.73;95.97;92351.50;5035837;28;20039;-74
2022/07/27 00:34:24;;;;;;;7.90;4.40;;;;;;;17.74;95.93;92345.09;5035752;28;20044;-74
2022/07/27 00:36:49;;;;;;;8.30;4.05;;;;;;;17.76;97.18;92342.88;5034947;28;20029;-74
2022/07/27 00:39:15;;;;;;;7.25;4.05;;;;;;;17.73;98.07;92340.91;5053496;28;20045;-74
2022/07/27 00:41:40;;;;;;;8.05;4.50;;;;;;;17.75;97.11;92347.44;5035806;28;20037;-74
2022/07/27 00:44:06;;;;;;;8.68;4.50;;;;;;;17.77;97.35;92344.44;5019292;28;20109;-74
2022/07/27 00:46:32;;;;;;;5.68;3.92;;;;;;;17.73;97.21;92354.16;5034831;28;20052;-74
2022/07/27 00:48:58;;;;;;;7.38;4.15;;;;;;;17.66;96.43;92350.19;5034355;28;20508;-74
2022/07/27 00:51:24;;;;;;;9.63;4.47;;;;;;;17.61;96.31;92345.13;5053262;28;20163;-74
2022/07/27 00:53:54;;;;;;;7.05;4.20;;;;;;;17.58;96.35;92352.94;5035300;28;20049;-74
2022/07/27 00:56:21;;;;;;;6.47;3.92;;;;;;;17.61;98.32;92350.41;5042500;28;20037;-74
2022/07/27 00:58:48;;;;;;;7.28;4.50;;;;;;;17.62;98.78;92353.84;5015652;28;20037;-73
2022/07/27 01:01:15;;;;;;;8.52;4.28;;;;;;;17.58;98.06;92353.72;5033166;28;20029;-74
2022/07/27 01:03:41;;;;;;;7.63;4.72;;;;;;;17.59;98.23;92368.50;5033103;28;20495;-74
2022/07/27 01:06:07;;;;;;;9.05;4.45;;;;;;;17.58;98.83;92369.59;5021575;28;20026;-74
2022/07/27 01:08:33;;;;;;;6.13;4.13;;;;;;;17.57;100.00;92362.00;5035158;28;20428;-74
2022/07/27 01:10:59;;;;;;;7.35;4.18;;;;;;;17.59;100.00;92365.88;5035275;28;20045;-74
2022/07/27 01:13:27;;;;;;;6.35;4.00;;;;;;;17.61;100.00;92362.88;5033899;28;20120;-74
2022/07/27 01:15:54;;;;;;;7.45;4.10;;;;;;;17.61;99.48;92363.66;5050870;28;20120;-73
2022/07/27 01:18:28;;;;;;;8.65;4.10;;;;;;;17.59;98.66;92357.91;5032793;28;20034;-74
2022/07/27 01:20:54;;;;;;;8.50;4.00;;;;;;;17.53;97.84;92351.31;5032998;28;20025;-74
2022/07/27 01:23:21;;;;;;;9.60;3.67;;;;;;;17.52;97.06;92360.34;5031521;28;20114;-74
2022/07/27 01:25:46;;;;;;;7.05;4.28;;;;;;;17.57;98.49;92354.84;5014938;28;20046;-74
2022/07/27 01:28:12;;;;;;;6.65;4.05;;;;;;;17.53;99.27;92342.59;5033779;28;20055;-74
2022/07/27 01:30:38;;;;;;;7.53;4.20;;;;;;;17.50;98.49;92346.69;4998471;28;20057;-74
2022/07/27 01:33:05;;;;;;;6.38;4.13;;;;;;;17.46;98.00;92345.78;5020740;28;20033;-74
2022/07/27 01:35:32;;;;;;;6.90;4.10;;;;;;;17.44;97.60;92346.13;5052403;28;20037;-74
2022/07/27 01:37:58;;;;;;;10.55;4.20;;;;;;;17.44;97.87;92348.00;5052417;28;20040;-74
2022/07/27 01:40:24;;;;;;;6.28;3.78;;;;;;;17.42;97.69;92344.91;5052385;28;20034;-74
2022/07/27 01:42:50;;;;;;;6.30;3.95;;;;;;;17.37;100.00;92348.56;5017964;28;20037;-74
2022/07/27 01:45:16;;;;;;;6.28;4.07;;;;;;;17.35;98.56;92345.47;5053680;28;20036;-74
2022/07/27 01:47:41;;;;;;;7.57;4.20;;;;;;;17.27;99.52;92341.84;5037740;28;20028;-74
2022/07/27 01:50:07;;;;;;;6.50;4.03;;;;;;;17.30;99.15;92344.94;5072275;28;20401;-74
2022/07/27 01:52:33;;;;;;;8.70;4.50;;;;;;;17.31;99.79;92336.63;5054146;28;20037;-73
2022/07/27 01:54:59;;;;;;;6.70;4.40;;;;;;;17.28;100.00;92340.72;5044091;28;20029;-74
2022/07/27 01:57:24;;;;;;;6.75;3.78;;;;;;;17.27;100.00;92333.91;4997853;28;20531;-74
2022/07/27 01:59:52;;;;;;;5.68;3.67;;;;;;;17.23;100.00;92333.00;5032082;28;20060;-74
2022/07/27 02:02:18;;;;;;;8.23;4.10;;;;;;;17.21;99.69;92321.22;4998016;28;20034;-74
2022/07/27 02:04:43;;;;;;;7.68;4.07;;;;;;;17.16;99.75;92316.94;5020947;28;20043;-74
2022/07/27 02:07:09;;;;;;;7.07;4.18;;;;;;;17.09;100.00;92311.41;5051403;28;20021;-74
2022/07/27 02:09:35;;;;;;;5.63;3.80;;;;;;;17.03;100.00;92316.13;5034181;28;20418;-74
2022/07/27 02:14:44;;;;;;;6.25;3.80;;;;;;;17.04;98.64;92306.31;5049035;28;20048;-74
2022/07/27 02:17:10;;;;;;;5.90;3.90;;;;;;;17.10;98.04;92305.03;5031761;28;20483;-74
2022/07/27 02:19:35;;;;;;;5.50;3.78;;;;;;;17.11;97.26;92314.47;5014031;28;20176;-74
2022/07/27 02:22:01;;;;;;;7.88;4.20;;;;;;;17.11;96.58;92319.00;5013999;28;20108;-74
2022/07/27 02:24:27;;;;;;;7.68;3.80;;;;;;;17.17;95.90;92325.63;5013614;28;20026;-74
2022/07/27 02:26:52;;;;;;;6.97;4.00;;;;;;;17.15;95.47;92325.94;5029904;28;20047;-74
2022/07/27 02:29:18;;;;;;;8.77;4.00;;;;;;;17.14;94.94;92324.41;5051380;28;20399;-74
2022/07/27 02:31:43;;;;;;;5.40;3.50;;;;;;;17.16;94.47;92332.03;5033722;28;20025;-74
2022/07/27 02:34:09;;;;;;;6.53;3.90;;;;;;;17.17;95.65;92333.56;5017131;28;20037;-74
2022/07/27 02:36:35;;;;;;;6.50;4.10;;;;;;;17.16;94.75;92337.31;5015122;28;20546;-73
2022/07/27 02:39:00;;;;;;;7.57;4.18;;;;;;;17.17;94.59;92344.91;5017547;28;20037;-73
2022/07/27 02:41:26;;;;;;;5.95;3.95;;;;;;;17.19;94.62;92348.00;5033580;28;20037;-74
2022/07/27 02:43:51;;;;;;;7.13;4.00;;;;;;;17.20;95.24;92346.91;5051476;28;20064;-74
2022/07/27 02:46:17;;;;;;;6.97;3.97;;;;;;;17.20;95.88;92354.84;5049457;28;20021;-74
2022/07/27 02:48:42;;;;;;;6.80;3.97;;;;;;;17.21;96.46;92360.91;5016738;28;20047;-74
2022/07/27 02:51:08;;;;;;;8.07;4.10;;;;;;;17.17;96.15;92360.78;5033254;28;20032;-73
2022/07/27 02:53:33;;;;;;;5.78;3.90;;;;;;;17.19;96.69;92363.09;5016256;28;20079;-74
2022/07/27 02:55:59;;;;;;;9.52;4.00;;;;;;;17.16;96.29;92363.78;5050759;28;20056;-73
2022/07/27 02:58:24;;;;;;;8.18;4.20;;;;;;;17.16;95.45;92369.81;5031931;28;20091;-74
2022/07/27 03:00:51;;;;;;;11.63;4.30;;;;;;;17.19;96.50;92368.38;5051213;28;20068;-74
2022/07/27 03:03:16;;;;;;;10.38;5.28;;;;;;;17.18;96.96;92378.19;5051254;28;20047;-73
2022/07/27 03:05:42;;;;;;;7.18;4.03;;;;;;;17.19;99.08;92379.72;5032866;28;20127;-74
2022/07/27 03:08:08;;;;;;;9.68;3.97;;;;;;;17.23;98.33;92375.34;5048812;28;20029;-74
2022/07/27 03:10:34;;;;;;;7.88;4.00;;;;;;;17.16;99.51;92377.00;5032938;28;20418;-74
2022/07/27 03:13:00;;;;;;;5.53;3.75;;;;;;;17.21;99.11;92372.25;5016813;28;20110;-74
2022/07/27 03:15:26;;;;;;;7.40;4.00;;;;;;;17.19;97.69;92377.09;5050804;28;20033;-73
2022/07/27 03:17:53;;;;;;;8.55;4.28;;;;;;;17.16;97.71;92385.69;5048947;28;20033;-74
2022/07/27 03:20:19;;;;;;;11.70;4.32;;;;;;;17.15;97.58;92383.38;5032716;28;20557;-74
2022/07/27 03:22:44;;;;;;;7.00;3.95;;;;;;;17.14;97.45;92377.31;5032649;28;20502;-74
2022/07/27 03:25:10;;;;;;;7.15;4.10;;;;;;;17.17;97.81;92381.16;5032742;28;20029;-74
2022/07/27 03:27:35;;;;;;;7.57;4.20;;;;;;;17.19;98.66;92378.97;5046744;28;20057;-74
2022/07/27 03:30:01;;;;;;;8.52;4.60;;;;;;;17.19;98.16;92387.66;5013597;28;20025;-74
2022/07/27 03:32:26;;;;;;;7.38;4.00;;;;;;;17.19;99.04;92378.97;4996631;28;20037;-73
2022/07/27 03:34:52;;;;;;;9.05;4.25;;;;;;;17.16;97.81;92379.63;5030562;28;20052;-74
2022/07/27 03:37:18;;;;;;;6.55;3.92;;;;;;;17.15;97.24;92375.44;4999943;28;20033;-74
2022/07/27 03:39:44;;;;;;;7.57;4.40;;;;;;;17.17;98.32;92370.59;5001984;28;20038;-74
2022/07/27 03:42:11;;;;;;;7.68;4.10;;;;;;;17.22;98.01;92371.13;5000642;28;20495;-74
2022/07/27 03:44:36;;;;;;;8.38;4.40;;;;;;;17.21;97.28;92372.25;5000896;28;20112;-74
2022/07/27 03:47:02;;;;;;;8.57;4.10;;;;;;;17.18;96.40;92362.34;5060814;28;20032;-74
2022/07/27 03:49:27;;;;;;;6.75;4.05;;;;;;;17.14;98.19;92358.81;5053253;28;20034;-74
2022/07/27 03:51:53;;;;;;;6.53;3.78;;;;;;;17.13;98.05;92359.88;5016616;28;20030;-74
2022/07/27 03:54:19;;;;;;;8.38;4.07;;;;;;;17.10;96.65;92373.78;5016423;28;20545;-74
2022/07/27 03:56:44;;;;;;;5.97;4.13;;;;;;;17.11;96.92;92367.38;5016502;28;20068;-74
2022/07/27 03:59:10;;;;;;;5.90;4.20;;;;;;;17.06;96.50;92370.25;5021160;28;20475;-74
2022/07/27 04:01:35;;;;;;;7.53;4.50;;;;;;;17.04;96.55;92359.22;5003544;28;20486;-74
2022/07/27 04:04:01;;;;;;;11.38;4.25;;;;;;;17.05;97.73;92369.47;5036156;28;20048;-74
2022/07/27 04:06:27;;;;;;;10.95;4.60;;;;;;;16.98;98.57;92365.84;5051406;28;20028;-73
2022/07/27 04:08:53;;;;;;;8.45;4.00;;;;;;;16.96;97.15;92363.50;5053597;28;20128;-74
2022/07/27 04:11:18;;;;;;;6.13;4.03;;;;;;;16.94;96.84;92372.88;5034675;28;20086;-74
2022/07/27 04:13:47;;;;;;;11.55;4.15;;;;;;;16.92;96.48;92367.91;5035916;28;20021;-75
2022/07/27 04:16:12;;;;;;;6.65;4.07;;;;;;;16.92;96.42;92364.50;5033231;28;20102;-75
2022/07/27 04:18:38;;;;;;;10.25;4.13;;;;;;;16.97;96.30;92359.00;5031704;28;20037;-76
2022/07/27 04:21:05;;;;;;;7.53;4.30;;;;;;;16.96;96.09;92365.38;5015629;28;20543;-76
2022/07/27 04:23:34;;;;;;;10.57;4.38;;;;;;;16.95;95.88;92375.16;5047697;28;20044;-76
2022/07/27 04:26:00;;;;;;;7.35;4.15;;;;;;;16.96;95.75;92362.75;5035047;28;20122;-76
2022/07/27 04:28:25;;;;;;;7.85;4.28;;;;;;;16.96;95.80;92365.38;5034289;28;20041;-76
2022/07/27 04:30:52;;;;;;;6.32;4.10;;;;;;;16.99;97.35;92362.06;5009822;28;20136;-76
2022/07/27 04:33:17;;;;;;;8.10;4.18;;;;;;;17.00;96.58;92363.63;5044816;28;20487;-78
2022/07/27 04:35:43;;;;;;;6.78;4.43;;;;;;;17.01;97.15;92363.28;5035069;28;20033;-76
2022/07/27 04:38:08;;;;;;;7.80;4.25;;;;;;;17.10;97.24;92360.56;5033930;28;20045;-76
2022/07/27 04:40:34;;;;;;;7.88;4.15;;;;;;;17.11;96.10;92351.50;5053076;28;20095;-75
2022/07/27 04:43:02;;;;;;;9.30;4.22;;;;;;;17.11;95.83;92353.38;5034091;28;20604;-76
2022/07/27 04:45:28;;;;;;;8.57;4.00;;;;;;;17.22;96.33;92349.97;5053250;28;20509;-76
2022/07/27 04:47:54;;;;;;;6.30;4.10;;;;;;;17.22;97.31;92346.56;5035416;28;20041;-76
2022/07/27 04:50:20;;;;;;;8.10;4.25;;;;;;;17.27;97.86;92344.47;5053168;28;20045;-75
2022/07/27 04:52:45;;;;;;;12.57;4.82;;;;;;;17.30;97.78;92343.03;5044734;28;20058;-76
2022/07/27 04:55:11;;;;;;;6.38;3.92;;;;;;;17.31;97.67;92343.81;5015440;28;20124;-76
2022/07/27 04:57:36;;;;;;;7.00;4.15;;;;;;;17.37;96.80;92337.19;5015388;28;20132;-75
2022/07/27 05:00:03;;;;;;;7.70;4.03;;;;;;;17.43;95.72;92335.88;5033236;28;20033;-75
2022/07/27 05:02:30;;;;;;;8.27;4.18;;;;;;;17.45;95.33;92323.88;4999078;28;20454;-76
2022/07/27 05:04:58;;;;;;;7.47;4.30;;;;;;;17.53;96.00;92326.72;5036858;28;20069;-76
2022/07/27 05:07:23;;;;;;;7.80;3.92;;;;;;;17.62;95.24;92322.84;5052854;28;20115;-76
2022/07/27 05:09:49;;;;;;;6.65;4.15;;;;;;;17.71;95.27;92325.38;5052826;28;20116;-76
2022/07/27 05:12:15;;;;;;;8.13;4.50;;;;;;;17.79;93.98;92326.34;5035091;28;20429;-76
2022/07/27 05:14:41;;;;;;;6.55;3.80;;;;;;;17.83;93.30;92329.88;5034995;28;20392;-76
2022/07/27 05:17:06;;;;;;;7.78;4.10;;;;;;;17.82;92.97;92323.06;5051016;28;20029;-76
2022/07/27 05:19:32;;;;;;;10.00;4.80;;;;;;;17.88;93.18;92319.84;5034990;28;20033;-76
2022/07/27 05:22:01;;;;;;;8.75;4.13;;;;;;;17.95;94.33;92319.28;5018242;28;20536;-76
2022/07/27 05:24:26;;;;;;;6.32;4.40;;;;;;;17.99;93.75;92317.50;5052643;28;20503;-76
2022/07/27 05:26:52;;;;;;;7.68;3.90;;;;;;;18.09;93.66;92319.66;5039524;28;20041;-75
2022/07/27 05:29:18;;;;;;;6.18;4.07;;;;;;;18.18;92.35;92319.53;5043164;28;20033;-76
2022/07/27 05:31:43;;;;;;;9.65;4.57;;;;;;;18.30;91.99;92313.41;5018230;28;20032;-76
2022/07/27 05:34:09;;;;;;;7.28;4.20;;;;;;;18.40;92.20;92318.22;5018090;28;20407;-76
2022/07/27 05:36:35;;;;;;;9.13;4.43;;;;;;;18.51;91.88;92315.88;5052294;28;20636;-75
2022/07/27 05:39:00;;;;;;;11.57;4.30;;;;;;;18.68;91.06;92312.13;5045587;28;20100;-76
2022/07/27 05:41:26;;;;;;;9.30;4.30;;;;;;;18.86;90.01;92321.31;5032620;28;20382;-75
2022/07/27 05:43:56;;;;;;;7.28;3.95;;;;;;;19.04;88.56;92321.00;5014524;28;20030;-76
2022/07/27 05:46:22;;;;;;;6.53;4.30;;;;;;;19.23;88.44;92323.75;5001630;28;20043;-76
2022/07/27 05:48:48;;;;;;;7.45;4.45;;;;;;;19.43;87.83;92321.13;5068309;28;20131;-76
2022/07/27 05:51:13;;;;;;;7.50;3.85;;;;;;;19.62;86.70;92315.88;5039623;28;20541;-76
2022/07/27 05:53:39;;;;;;;7.28;4.10;;;;;;;19.82;84.55;92316.72;4997869;28;20050;-76
2022/07/27 05:56:06;;;;;;;6.50;3.90;;;;;;;19.98;80.96;92316.69;5032262;28;20093;-76
2022/07/27 05:58:33;;;;;;;6.10;3.67;;;;;;;20.09;81.21;92322.22;4997884;28;20073;-76
2022/07/27 06:00:58;;;;;;;8.27;4.15;;;;;;;20.30;81.32;92322.63;5014943;28;20040;-76
2022/07/27 06:03:24;;;;;;;6.10;3.67;;;;;;;20.53;78.63;92325.31;5017747;28;20132;-76
2022/07/27 06:05:50;;;;;;;7.35;4.30;;;;;;;20.96;76.97;92326.16;5034283;28;20044;-74
2022/07/27 06:08:16;;;;;;;6.57;3.85;;;;;;;21.58;75.20;92328.66;5034132;28;20158;-76
2022/07/27 06:10:41;;;;;;;11.55;3.92;;;;;;;21.80;75.53;92329.75;5017498;28;20029;-76
2022/07/27 06:13:10;;;;;;;8.30;4.40;;;;;;;22.09;75.31;92338.13;5037729;28;20120;-76
2022/07/27 06:15:37;;;;;;;12.60;4.25;;;;;;;22.28;74.99;92337.22;5031794;28;20037;-76
2022/07/27 06:18:05;;;;;;;7.15;3.88;;;;;;;22.38;69.77;92341.94;5031707;28;20057;-76
2022/07/27 06:20:31;;;;;;;7.72;3.97;;;;;;;22.70;69.48;92336.19;5032019;28;20102;-76
2022/07/27 06:22:59;;;;;;;7.38;3.90;;;;;;;23.18;69.01;92332.88;5033053;28;20112;-76
2022/07/27 06:25:25;;;;;;;9.35;4.22;;;;;;;23.49;67.25;92337.69;5031588;28;20078;-76
2022/07/27 06:27:52;;;;;;;9.35;4.28;;;;;;;23.31;67.66;92333.38;5013989;28;20475;-76
2022/07/27 06:30:19;;;;;;;12.00;4.45;;;;;;;22.83;70.59;92334.81;5013881;28;20119;-74
2022/07/27 06:32:45;;;;;;;8.13;4.20;;;;;;;22.82;69.54;92341.25;5031521;28;20022;-74
2022/07/27 06:35:12;;;;;;;7.85;4.20;;;;;;;22.84;69.79;92341.66;5013638;28;20041;-74
2022/07/27 06:37:42;;;;;;;7.63;4.15;;;;;;;22.75;68.52;92337.78;5031295;28;20095;-76
2022/07/27 06:40:11;;;;;;;8.98;4.03;;;;;;;22.94;69.15;92337.56;5013595;28;20040;-76
2022/07/27 06:42:37;;;;;;;7.50;4.20;;;;;;;22.69;72.58;92333.88;4997295;28;20068;-76
2022/07/27 06:45:03;;;;;;;7.57;4.10;;;;;;;22.54;70.46;92339.06;5031492;28;20041;-76
2022/07/27 06:47:29;;;;;;;10.18;4.65;;;;;;;22.45;73.65;92350.03;5013540;28;20046;-76
2022/07/27 06:49:54;;;;;;;8.43;4.43;;;;;;;22.29;73.39;92349.44;5031292;28;20637;-76
2022/07/27 06:52:20;;;;;;;8.20;4.43;;;;;;;22.14;75.63;92343.13;5013509;28;20606;-76
2022/07/27 06:54:46;;;;;;;9.45;5.05;;;;;;;22.06;77.21;92346.81;5013227;28;20045;-76
2022/07/27 06:57:11;;;;;;;9.85;4.43;;;;;;;21.89;76.47;92342.03;5014360;28;20064;-76
2022/07/27 06:59:37;;;;;;;9.75;4.55;;;;;;;21.75;77.37;92354.03;5031154;28;20127;-76
2022/07/27 07:02:03;;;;;;;9.25;4.60;;;;;;;21.66;77.77;92355.38;5030906;28;20037;-76
2022/07/27 07:04:28;;;;;;;8.60;5.03;;;;;;;21.54;78.16;92359.03;5013471;28;20030;-76
2022/07/27 07:06:54;;;;;;;11.27;4.80;;;;;;;21.47;78.28;92354.34;5007358;28;20060;-76
2022/07/27 07:09:20;;;;;;;8.10;4.75;;;;;;;21.46;77.61;92360.03;5030933;28;20041;-76
2022/07/27 07:11:46;;;;;;;8.23;4.90;;;;;;;21.50;77.66;92360.88;5030051;28;20453;-74
2022/07/27 07:14:12;;;;;;;9.00;4.90;;;;;;;21.44;79.70;92364.97;5013321;28;20045;-75
2022/07/27 07:16:37;;;;;;;8.00;4.90;;;;;;;21.32;79.59;92358.69;5032927;28;20042;-76
2022/07/27 07:19:04;;;;;;;10.07;5.32;;;;;;;21.50;81.22;92366.19;4996907;28;20178;-76
2022/07/27 07:21:29;;;;;;;11.82;5.38;;;;;;;21.57;79.86;92359.09;4996820;28;20037;-76
2022/07/27 07:23:55;;;;;;;8.80;5.13;;;;;;;21.59;80.43;92359.50;4996781;28;20045;-76
2022/07/27 07:26:21;;;;;;;5.93;4.10;;;;;;;21.54;73.29;92359.03;5032394;28;20076;-76
2022/07/27 07:28:46;;;;;;;7.07;4.35;;;;;;;21.54;76.07;92364.34;5030619;28;20049;-76
2022/07/27 07:31:12;;;;;;;7.93;4.32;;;;;;;21.69;78.85;92360.78;5030605;28;20038;-76
2022/07/27 07:33:37;;;;;;;7.72;5.00;;;;;;;22.03;76.96;92355.53;5031002;28;20103;-76
2022/07/27 07:36:03;;;;;;;8.07;4.38;;;;;;;22.52;73.82;92356.56;5012895;28;20120;-76
2022/07/27 07:38:30;;;;;;;6.82;4.10;;;;;;;22.62;71.57;92356.69;5031742;28;20021;-75
2022/07/27 07:40:55;;;;;;;6.20;4.10;;;;;;;22.72;69.64;92346.47;4996843;28;20151;-76
2022/07/27 07:43:21;;;;;;;6.40;3.78;;;;;;;22.87;65.68;92348.19;5030668;28;20063;-76
2022/07/27 07:45:46;;;;;;;5.97;3.80;;;;;;;22.77;69.61;92346.94;5030624;28;20344;-76
2022/07/27 07:48:12;;;;;;;10.15;4.07;;;;;;;22.57;70.75;92354.34;5039833;28;20517;-76
2022/07/27 07:50:37;;;;;;;8.07;4.50;;;;;;;22.60;72.67;92356.28;5032612;28;20037;-76
2022/07/27 07:53:03;;;;;;;7.40;4.82;;;;;;;22.51;73.26;92353.13;5050420;28;20052;-76
2022/07/27 07:55:29;;;;;;;8.05;4.70;;;;;;;22.55;73.44;92351.25;5050393;28;20368;-76
2022/07/27 07:57:55;;;;;;;7.20;4.07;;;;;;;22.72;70.76;92349.16;5030482;28;20482;-76
2022/07/27 08:00:22;;;;;;;6.78;4.30;;;;;;;22.72;69.99;92349.16;4996533;28;20496;-75
2022/07/27 08:02:53;;;;;;;7.07;4.22;;;;;;;22.58;70.35;92355.88;5030401;28;20179;-75
2022/07/27 08:05:20;;;;;;;7.95;4.22;;;;;;;22.37;71.45;92350.28;5030262;28;20029;-76
2022/07/27 08:07:46;;;;;;;5.72;4.15;;;;;;;22.41;71.03;92348.44;5013014;28;20114;-76
2022/07/27 08:10:14;;;;;;;10.73;4.95;;;;;;;22.28;72.17;92347.13;5013210;28;20041;-76
2022/07/27 08:12:43;;;;;;;10.07;4.78;;;;;;;22.21;71.36;92359.25;5030734;28;20041;-75
2022/07/27 08:15:10;;;;;;;7.97;4.43;;;;;;;22.32;71.41;92350.63;5030160;28;20504;-76
2022/07/27 08:17:36;;;;;;;8.18;4.35;;;;;;;22.24;71.03;92347.84;5012489;28;20049;-76
2022/07/27 08:20:03;;;;;;;8.18;4.43;;;;;;;22.32;72.58;92346.06;5013876;28;20071;-75
2022/07/27 08:22:29;;;;;;;5.93;4.30;;;;;;;22.73;71.96;92348.03;5034292;28;20465;-75
2022/07/27 08:24:54;;;;;;;7.25;4.28;;;;;;;22.85;68.54;92348.56;5036092;28;20029;-75
2022/07/27 08:27:20;;;;;;;6.93;4.78;;;;;;;23.03;69.25;92347.97;5036228;28;20131;-75
2022/07/27 08:29:45;;;;;;;7.90;4.35;;;;;;;23.20;67.37;92346.63;5036319;28;20044;-75
2022/07/27 08:32:11;;;;;;;6.50;4.15;;;;;;;23.20;68.07;92341.28;5020747;28;20472;-76
2022/07/27 08:34:37;;;;;;;8.40;4.60;;;;;;;23.36;68.11;92344.47;5032120;28;20115;-76
2022/07/27 08:37:02;;;;;;;7.93;4.45;;;;;;;23.38;66.83;92347.53;5035715;28;20474;-75
2022/07/27 08:39:28;;;;;;;8.85;4.25;;;;;;;23.50;67.84;92349.16;5053776;28;20092;-76
2022/07/27 08:41:56;;;;;;;8.32;4.32;;;;;;;23.59;66.94;92351.50;5035735;28;20033;-75
2022/07/27 08:44:23;;;;;;;6.45;4.15;;;;;;;23.61;65.21;92351.91;5051552;28;20045;-76
2022/07/27 08:46:50;;;;;;;6.18;3.92;;;;;;;23.46;62.66;92349.13;5015921;28;20402;-75
2022/07/27 08:49:20;;;;;;;7.68;4.22;;;;;;;23.31;64.63;92349.38;5033874;28;20061;-75
2022/07/27 08:51:47;;;;;;;7.57;4.05;;;;;;;23.41;65.20;92352.13;5015887;28;20042;-76
2022/07/27 08:54:13;;;;;;;5.20;3.47;;;;;;;23.44;65.34;92346.06;5015662;28;20144;-75
2022/07/27 08:56:38;;;;;;;6.57;3.83;;;;;;;23.26;65.13;92343.25;5016795;28;20132;-76
2022/07/27 08:59:04;;;;;;;7.05;3.80;;;;;;;23.24;67.31;92347.44;5033475;28;20485;-76
2022/07/27 09:01:34;;;;;;;7.25;3.92;;;;;;;23.39;65.00;92349.06;5015720;28;20069;-76
2022/07/27 09:04:00;;;;;;;6.13;3.67;;;;;;;23.51;66.92;92349.91;5033270;28;20060;-76
2022/07/27 09:06:58;;;;;;;6.78;3.70;;;;;;;23.54;65.18;92349.19;5025776;28;20428;-75
2022/07/27 09:09:23;;;;;;;6.10;3.72;;;;;;;23.83;64.59;92342.94;4989913;28;20095;-75
2022/07/27 09:12:05;;;;;;;5.93;3.63;;;;;;;24.06;62.77;92341.91;5015500;28;20041;-76
2022/07/27 09:14:33;;;;;;;7.72;3.85;;;;;;;24.26;60.61;92345.06;5033245;28;20403;-76
2022/07/27 09:17:17;;;;;;;10.63;4.07;;;;;;;24.20;58.44;92344.66;5032880;28;20034;-76
2022/07/27 09:20:18;;;;;;;7.05;3.40;;;;;;;24.35;58.76;92342.81;5015508;28;20045;-76
2022/07/27 09:22:54;;;;;;;5.97;3.83;;;;;;;24.33;59.30;92344.34;5033037;28;20064;-76
2022/07/27 09:25:27;;;;;;;7.47;3.30;;;;;;;24.41;60.18;92354.72;5032919;28;20043;-76
2022/07/27 09:27:56;;;;;;;5.60;3.70;;;;;;;24.70;58.65;92352.94;5033439;28;20037;-76
2022/07/27 09:30:23;;;;;;;5.88;3.30;;;;;;;24.91;56.91;92348.78;5032831;28;20025;-76
2022/07/27 09:32:55;;;;;;;6.05;3.42;;;;;;;25.17;56.62;92353.03;5014685;28;20411;-76
2022/07/27 09:35:24;;;;;;;6.55;3.45;;;;;;;25.52;55.85;92352.31;5014710;28;20063;-76
2022/07/27 09:37:49;;;;;;;6.72;3.72;;;;;;;25.61;53.71;92354.63;5023836;28;20029;-76
2022/07/27 09:40:20;;;;;;;5.85;3.90;;;;;;;25.62;53.94;92352.69;5035041;28;20039;-76
2022/07/27 09:42:46;;;;;;;6.55;3.40;;;;;;;25.60;54.92;92355.00;5034711;28;20065;-76
2022/07/27 09:45:35;;;;;;;7.63;3.30;;;;;;;25.78;53.31;92355.75;5034832;28;20094;-76
2022/07/27 09:48:13;;;;;;;5.05;3.22;;;;;;;25.49;51.96;92358.47;5034145;28;20136;-76
2022/07/27 09:50:42;;;;;;;7.60;3.40;;;;;;;25.49;52.83;92353.09;5032498;28;20099;-76
2022/07/27 09:53:19;;;;;;;7.45;3.17;;;;;;;25.80;52.87;92360.75;5014482;28;20053;-76
2022/07/27 09:55:56;;;;;;;6.88;3.42;;;;;;;25.26;52.10;92348.09;5032514;28;20452;-76
2022/07/27 09:58:56;;;;;;;5.15;3.00;;;;;;;25.70;52.68;92355.00;5032682;28;20148;-76
2022/07/27 10:01:24;;;;;;;4.47;3.00;;;;;;;25.72;49.87;92362.66;5032354;28;20040;-76
2022/07/27 10:03:53;;;;;;;5.00;2.67;;;;;;;25.59;51.11;92358.84;5032277;28;20026;-76
2022/07/27 10:06:19;;;;;;;5.03;2.58;;;;;;;25.84;49.60;92356.91;5032225;28;20479;-76
2022/07/27 10:08:47;;;;;;;5.03;2.75;;;;;;;26.10;47.82;92363.03;4999771;28;20036;-76
2022/07/27 10:11:14;;;;;;;3.80;2.25;;;;;;;26.29;48.66;92362.59;5050312;28;20032;-76
2022/07/27 10:13:41;;;;;;;5.55;2.90;;;;;;;26.50;46.02;92356.41;5052083;28;20129;-74
2022/07/27 10:16:12;;;;;;;6.93;2.85;;;;;;;26.74;50.05;92354.03;5017661;28;20037;-76
2022/07/27 10:18:44;;;;;;;7.00;2.80;;;;;;;26.61;46.38;92352.94;5033684;28;20047;-76
2022/07/27 10:21:10;;;;;;;4.68;2.80;;;;;;;26.69;48.19;92343.72;5014174;28;20029;-76
2022/07/27 10:23:39;;;;;;;4.90;2.92;;;;;;;26.70;48.49;92348.66;5032038;28;20398;-76
2022/07/27 10:26:38;;;;;;;5.00;2.70;;;;;;;26.95;47.24;92348.56;5014521;28;20041;-76
2022/07/27 10:29:13;;;;;;;4.68;2.58;;;;;;;26.96;45.71;92341.28;4988954;28;20041;-76
2022/07/27 10:31:41;;;;;;;4.07;2.40;;;;;;;27.17;46.04;92335.00;5050999;28;20056;-76
2022/07/27 10:34:13;;;;;;;4.20;2.60;;;;;;;27.19;46.94;92333.44;5051608;28;20037;-76
2022/07/27 10:36:48;;;;;;;4.10;2.50;;;;;;;27.39;47.43;92336.41;5051629;28;20037;-77
2022/07/27 10:39:26;;;;;;;5.38;2.58;;;;;;;27.33;45.48;92337.22;5017292;28;20099;-76
2022/07/27 10:41:52;;;;;;;5.82;2.83;;;;;;;26.77;46.55;92339.81;5050987;28;20025;-76
2022/07/27 10:44:17;;;;;;;4.45;2.28;;;;;;;26.99;44.00;92338.53;5051654;28;20505;-75
2022/07/27 10:46:55;;;;;;;5.10;2.47;;;;;;;27.06;43.31;92342.34;5033635;28;20040;-74
2022/07/27 10:49:33;;;;;;;3.78;2.20;;;;;;;27.01;42.72;92332.78;5051428;28;20170;-74
2022/07/27 10:51:59;;;;;;;3.70;2.13;;;;;;;27.02;41.79;92328.97;5049589;28;20033;-74
2022/07/27 10:54:31;;;;;;;4.25;2.10;;;;;;;27.05;42.80;92330.09;5033780;28;20060;-74
2022/07/27 10:56:58;;;;;;;3.30;1.95;;;;;;;27.11;40.91;92321.22;5032968;28;20124;-74
2022/07/27 10:59:39;;;;;;;5.80;2.42;;;;;;;27.46;43.82;92324.84;5051027;28;20422;-74
2022/07/27 11:02:07;;;;;;;3.65;2.13;;;;;;;27.66;42.26;92327.00;5016915;28;20040;-74
2022/07/27 11:04:33;;;;;;;4.47;2.40;;;;;;;27.61;42.13;92315.50;5051129;28;20036;-73
2022/07/27 11:07:00;;;;;;;3.75;2.38;;;;;;;27.74;41.00;92309.63;5051312;28;20028;-74
2022/07/27 11:09:40;;;;;;;4.32;2.28;;;;;;;27.68;39.67;92316.63;5051037;28;20611;-74
2022/07/27 11:12:09;;;;;;;5.30;2.35;;;;;;;26.79;42.79;92316.03;5031266;28;20098;-74
2022/07/27 11:15:01;;;;;;;4.15;2.40;;;;;;;26.96;43.84;92314.41;5016779;28;20422;-74
2022/07/27 11:17:29;;;;;;;6.38;2.30;;;;;;;27.11;41.76;92299.75;5048042;28;20040;-74
2022/07/27 11:20:00;;;;;;;4.90;2.25;;;;;;;27.40;41.37;92311.06;5016527;28;20021;-74
2022/07/27 11:22:37;;;;;;;4.80;2.10;;;;;;;27.58;42.15;92304.78;5050949;28;20564;-74
2022/07/27 11:25:04;;;;;;;6.53;2.60;;;;;;;27.47;40.47;92298.72;5032878;28;20037;-74
2022/07/27 11:27:30;;;;;;;4.35;2.58;;;;;;;27.70;42.09;92298.91;5033007;28;20474;-74
2022/07/27 11:29:56;;;;;;;4.32;2.50;;;;;;;27.73;41.74;92300.03;5016563;28;20377;-74
2022/07/27 11:32:23;;;;;;;4.72;2.63;;;;;;;27.68;40.59;92293.16;5032795;28;20037;-74
2022/07/27 11:34:49;;;;;;;3.53;2.20;;;;;;;27.90;42.36;92293.75;5044483;28;20693;-74